createdAt,value
2022-10-23T00:01:46.259Z,85.72
2022-10-23T00:04:15.227Z,85.60
2022-10-23T00:06:43.097Z,85.36
2022-10-23T00:09:12.608Z,85.13
2022-10-23T00:11:39.680Z,86.18
2022-10-23T00:14:07.942Z,85.74
2022-10-23T00:16:34.814Z,86.12
2022-10-23T00:19:01.931Z,85.95
2022-10-23T00:21:28.594Z,85.85
2022-10-23T00:23:55.500Z,85.84
2022-10-23T00:26:22.125Z,86.61
2022-10-23T00:28:51.601Z,87.12
2022-10-23T00:31:19.341Z,86.21
2022-10-23T00:33:46.551Z,86.54
2022-10-23T00:36:15.572Z,86.00
2022-10-23T00:38:43.728Z,86.00
2022-10-23T00:41:15.962Z,86.11
2022-10-23T00:44:01.622Z,86.95
2022-10-23T00:46:29.283Z,86.56
2022-10-23T00:48:56.626Z,86.10
2022-10-23T00:51:24.588Z,86.50
2022-10-23T00:54:01.203Z,87.07
2022-10-23T00:56:44.926Z,86.69
2022-10-23T00:59:12.244Z,87.16
2022-10-23T01:01:38.999Z,86.78
2022-10-23T01:04:07.432Z,86.78
2022-10-23T01:07:02.147Z,89.08
2022-10-23T01:09:37.701Z,88.18
2022-10-23T01:12:28.816Z,88.15
2022-10-23T01:15:26.525Z,88.81
2022-10-23T01:18:17.020Z,89.81
2022-10-23T01:21:05.054Z,89.08
2022-10-23T01:23:43.823Z,87.98
2022-10-23T01:26:30.434Z,88.63
2022-10-23T01:29:19.709Z,90.23
2022-10-23T01:31:53.805Z,88.60
2022-10-23T01:34:30.323Z,89.36
2022-10-23T01:37:01.293Z,89.08
2022-10-23T01:39:34.037Z,89.84
2022-10-23T01:42:09.614Z,89.38
2022-10-23T01:44:57.346Z,89.33
2022-10-23T01:47:28.476Z,90.78
2022-10-23T01:50:05.954Z,90.26
2022-10-23T01:52:33.677Z,90.34
2022-10-23T01:55:03.408Z,89.13
2022-10-23T01:57:34.790Z,89.59
2022-10-23T02:00:12.103Z,89.78
2022-10-23T02:02:52.402Z,90.44
2022-10-23T02:05:28.636Z,89.62
2022-10-23T02:07:57.987Z,89.80
2022-10-23T02:10:41.872Z,89.75
2022-10-23T02:13:33.777Z,89.79
2022-10-23T02:16:09.776Z,90.12
2022-10-23T02:18:41.930Z,89.65
2022-10-23T02:21:21.267Z,89.58
2022-10-23T02:23:52.551Z,89.46
2022-10-23T02:26:30.021Z,89.34
2022-10-23T02:29:21.169Z,90.23
2022-10-23T02:31:47.808Z,89.10
2022-10-23T02:34:16.621Z,89.77
2022-10-23T02:36:43.360Z,89.99
2022-10-23T02:39:10.001Z,88.99
2022-10-23T02:42:04.142Z,89.57
2022-10-23T02:45:07.992Z,90.31
2022-10-23T02:48:03.766Z,90.45
2022-10-23T02:51:00.815Z,89.98
2022-10-23T02:53:44.428Z,89.95
2022-10-23T02:56:14.098Z,88.78
2022-10-23T02:58:56.623Z,89.17
2022-10-23T03:01:36.384Z,89.15
2022-10-23T03:04:06.164Z,88.79
2022-10-23T03:06:33.164Z,89.00
2022-10-23T03:09:04.114Z,88.97
2022-10-23T03:11:30.809Z,88.39
2022-10-23T03:13:57.482Z,89.17
2022-10-23T03:16:24.478Z,88.74
2022-10-23T03:18:54.532Z,88.16
2022-10-23T03:21:21.589Z,88.75
2022-10-23T03:23:51.993Z,88.92
2022-10-23T03:26:24.489Z,88.67
2022-10-23T03:28:51.091Z,88.28
2022-10-23T03:31:20.330Z,88.30
2022-10-23T03:33:49.182Z,87.91
2022-10-23T03:36:15.757Z,87.58
2022-10-23T03:38:44.032Z,87.58
2022-10-23T03:41:10.811Z,87.74
2022-10-23T03:43:37.443Z,88.20
2022-10-23T03:46:09.084Z,88.31
2022-10-23T03:48:38.198Z,88.17
2022-10-23T03:51:06.402Z,87.64
2022-10-23T03:53:33.225Z,87.81
2022-10-23T03:56:02.243Z,88.54
2022-10-23T03:58:28.875Z,88.93
2022-10-23T04:00:55.916Z,88.98
2022-10-23T04:03:22.959Z,88.75
2022-10-23T04:05:52.198Z,88.43
2022-10-23T04:08:21.420Z,87.48
2022-10-23T04:10:50.831Z,88.01
2022-10-23T04:13:20.903Z,88.51
2022-10-23T04:15:51.922Z,88.81
2022-10-23T04:18:19.165Z,88.37
2022-10-23T04:20:50.365Z,87.85
2022-10-23T04:23:17.758Z,87.70
2022-10-23T04:25:49.272Z,87.69
2022-10-23T04:28:15.875Z,88.46
2022-10-23T04:30:42.546Z,87.78
2022-10-23T04:33:12.113Z,87.75
2022-10-23T04:35:38.684Z,87.87
2022-10-23T04:38:05.322Z,87.17
2022-10-23T04:40:32.000Z,87.04
2022-10-23T04:42:59.375Z,87.52
2022-10-23T04:45:26.289Z,87.62
2022-10-23T04:47:56.215Z,87.20
2022-10-23T04:50:24.344Z,87.32
2022-10-23T04:53:11.199Z,87.36
2022-10-23T04:55:58.358Z,87.35
2022-10-23T04:58:45.164Z,86.98
2022-10-23T05:01:11.929Z,87.45
2022-10-23T05:03:38.981Z,87.19
2022-10-23T05:06:06.088Z,87.66
2022-10-23T05:08:58.962Z,87.60
2022-10-23T05:11:44.745Z,87.57
2022-10-23T05:14:11.370Z,86.92
2022-10-23T05:16:44.920Z,87.61
2022-10-23T05:19:16.308Z,87.74
2022-10-23T05:21:45.610Z,86.40
2022-10-23T05:24:12.427Z,87.80
2022-10-23T05:26:38.952Z,87.49
2022-10-23T05:29:07.761Z,86.83
2022-10-23T05:31:35.429Z,87.77
2022-10-23T05:34:13.298Z,87.33
2022-10-23T05:36:43.606Z,87.69
2022-10-23T05:39:10.514Z,86.67
2022-10-23T05:41:37.481Z,86.98
2022-10-23T05:44:04.100Z,87.68
2022-10-23T05:46:49.206Z,87.02
2022-10-23T05:49:36.135Z,87.14
2022-10-23T05:52:29.003Z,87.07
2022-10-23T05:55:18.901Z,86.80
2022-10-23T05:57:56.179Z,86.42
2022-10-23T06:00:41.951Z,87.42
2022-10-23T06:03:28.489Z,86.77
2022-10-23T06:05:55.104Z,87.46
2022-10-23T06:08:24.365Z,87.29
2022-10-23T06:10:51.441Z,87.06
2022-10-23T06:13:19.014Z,86.47
2022-10-23T06:15:46.285Z,86.24
2022-10-23T06:18:19.718Z,87.13
2022-10-23T06:21:09.637Z,87.22
2022-10-23T06:23:38.046Z,87.34
2022-10-23T06:26:24.394Z,86.77
2022-10-23T06:28:58.937Z,87.06
2022-10-23T06:31:27.685Z,86.12
2022-10-23T06:33:57.556Z,85.95
2022-10-23T06:36:24.842Z,86.35
2022-10-23T06:38:56.232Z,86.11
2022-10-23T06:41:29.234Z,86.73
2022-10-23T06:43:56.000Z,86.09
2022-10-23T06:46:30.140Z,86.00
2022-10-23T06:49:16.132Z,85.54
2022-10-23T06:51:47.246Z,86.09
2022-10-23T06:54:15.196Z,85.95
2022-10-23T06:56:47.964Z,85.70
2022-10-23T06:59:17.728Z,85.28
2022-10-23T07:01:44.811Z,85.58
2022-10-23T07:04:13.649Z,85.17
2022-10-23T07:06:42.449Z,84.67
2022-10-23T07:09:10.279Z,85.38
2022-10-23T07:11:56.837Z,85.40
2022-10-23T07:14:34.762Z,84.51
2022-10-23T07:17:02.898Z,84.62
2022-10-23T07:19:29.530Z,84.23
2022-10-23T07:21:57.822Z,83.94
2022-10-23T07:24:40.097Z,84.09
2022-10-23T07:27:30.866Z,83.59
2022-10-23T07:30:01.074Z,84.11
2022-10-23T07:32:33.258Z,83.79
2022-10-23T07:35:18.762Z,83.33
2022-10-23T07:38:02.858Z,83.57
2022-10-23T07:40:32.770Z,82.65
2022-10-23T07:42:59.631Z,82.60
2022-10-23T07:45:26.233Z,82.23
2022-10-23T07:47:53.588Z,82.79
2022-10-23T07:50:23.919Z,82.67
2022-10-23T07:52:50.525Z,82.47
2022-10-23T07:55:17.922Z,82.45
2022-10-23T07:57:50.833Z,81.71
2022-10-23T08:00:26.786Z,80.96
2022-10-23T08:03:02.374Z,80.94
2022-10-23T08:05:32.167Z,80.42
2022-10-23T08:08:01.245Z,80.19
2022-10-23T08:10:29.057Z,79.90
2022-10-23T08:12:55.714Z,79.25
2022-10-23T08:15:40.130Z,78.84
2022-10-23T08:18:17.523Z,79.08
2022-10-23T08:20:47.138Z,78.91
2022-10-23T08:23:17.811Z,78.27
2022-10-23T08:25:45.594Z,78.93
2022-10-23T08:28:13.863Z,79.53
2022-10-23T08:30:50.487Z,79.38
2022-10-23T08:33:17.856Z,78.64
2022-10-23T08:35:44.497Z,78.53
2022-10-23T08:38:11.298Z,78.61
2022-10-23T08:40:47.940Z,77.71
2022-10-23T08:43:46.262Z,77.85
2022-10-23T08:46:42.298Z,76.77
2022-10-23T08:49:30.577Z,77.41
2022-10-23T08:52:13.278Z,77.37
2022-10-23T08:54:54.806Z,77.72
2022-10-23T08:57:24.151Z,76.53
2022-10-23T09:00:04.686Z,76.66
2022-10-23T09:02:42.291Z,77.67
2022-10-23T09:05:19.407Z,76.59
2022-10-23T09:07:55.003Z,75.84
2022-10-23T09:10:33.163Z,76.56
2022-10-23T09:13:32.641Z,74.96
2022-10-23T09:16:14.294Z,75.18
2022-10-23T09:18:42.152Z,76.44
2022-10-23T09:21:11.844Z,75.23
2022-10-23T09:23:38.565Z,74.02
2022-10-23T09:26:14.538Z,75.22
2022-10-23T09:28:52.718Z,74.04
2022-10-23T09:31:19.711Z,73.99
2022-10-23T09:34:01.466Z,73.38
2022-10-23T09:36:29.258Z,73.70
2022-10-23T09:39:00.433Z,72.79
2022-10-23T09:41:31.160Z,72.35
2022-10-23T09:44:23.709Z,73.43
2022-10-23T09:46:54.742Z,74.49
2022-10-23T09:49:30.048Z,71.91
2022-10-23T09:52:08.378Z,73.25
2022-10-23T09:54:39.323Z,73.36
2022-10-23T09:57:31.947Z,71.82
2022-10-23T10:00:16.500Z,72.92
2022-10-23T10:02:54.788Z,72.17
2022-10-23T10:05:54.891Z,73.41
2022-10-23T10:08:37.317Z,71.91
2022-10-23T10:11:13.123Z,72.12
2022-10-23T10:14:11.956Z,71.77
2022-10-23T10:16:41.394Z,72.76
2022-10-23T10:19:27.375Z,72.46
2022-10-23T10:22:32.457Z,71.60
2022-10-23T10:25:08.934Z,72.20
2022-10-23T10:27:50.684Z,72.17
2022-10-23T10:30:23.533Z,71.61
2022-10-23T10:33:05.726Z,71.42
2022-10-23T10:36:28.923Z,71.98
2022-10-23T10:39:03.901Z,71.72
2022-10-23T10:42:05.058Z,72.94
2022-10-23T10:44:46.889Z,71.93
2022-10-23T10:47:44.574Z,71.85
2022-10-23T10:50:19.874Z,72.02
2022-10-23T10:53:07.596Z,71.75
2022-10-23T10:55:46.607Z,71.61
2022-10-23T10:58:35.709Z,72.25
2022-10-23T11:01:07.661Z,71.94
2022-10-23T11:03:40.270Z,72.25
2022-10-23T11:06:14.943Z,70.34
2022-10-23T11:08:56.264Z,71.11
2022-10-23T11:11:32.881Z,69.79
2022-10-23T11:13:59.789Z,69.87
2022-10-23T11:16:34.356Z,70.06
2022-10-23T11:19:34.132Z,68.82
2022-10-23T11:22:24.978Z,67.82
2022-10-23T11:25:26.896Z,68.98
2022-10-23T11:28:12.418Z,68.65
2022-10-23T11:31:10.821Z,68.40
2022-10-23T11:34:00.742Z,68.42
2022-10-23T11:36:57.284Z,67.90
2022-10-23T11:39:27.460Z,68.13
2022-10-23T11:42:06.770Z,68.28
2022-10-23T11:44:44.241Z,67.85
2022-10-23T11:47:29.765Z,68.65
2022-10-23T11:50:08.519Z,67.80
2022-10-23T11:53:15.616Z,67.42
2022-10-23T11:56:06.598Z,67.30
2022-10-23T11:58:53.027Z,66.81
2022-10-23T12:01:42.839Z,67.95
2022-10-23T12:04:12.419Z,67.77
2022-10-23T12:06:42.586Z,66.96
2022-10-23T12:09:25.505Z,66.89
2022-10-23T12:12:07.348Z,67.16
2022-10-23T12:14:49.656Z,67.07
2022-10-23T12:17:22.133Z,66.75
2022-10-23T12:20:12.853Z,67.04
2022-10-23T12:23:00.964Z,66.88
2022-10-23T12:25:52.067Z,66.32
2022-10-23T12:28:47.587Z,66.42
2022-10-23T12:31:36.173Z,66.14
2022-10-23T12:34:46.139Z,65.40
2022-10-23T12:37:18.801Z,67.62
2022-10-23T12:39:52.995Z,65.96
2022-10-23T12:42:24.854Z,66.57
2022-10-23T12:45:04.903Z,66.17
2022-10-23T12:47:32.103Z,66.51
2022-10-23T12:49:58.689Z,67.14
2022-10-23T12:52:25.284Z,66.85
2022-10-23T12:54:52.161Z,66.65
2022-10-23T12:57:28.024Z,64.42
2022-10-23T13:00:12.712Z,64.11
2022-10-23T13:02:39.376Z,66.76
2022-10-23T13:05:08.902Z,65.85
2022-10-23T13:07:44.684Z,65.18
2022-10-23T13:10:16.390Z,65.63
2022-10-23T13:13:04.665Z,66.34
2022-10-23T13:15:40.522Z,65.64
2022-10-23T13:18:08.778Z,67.21
2022-10-23T13:20:41.806Z,65.74
2022-10-23T13:23:10.538Z,66.38
2022-10-23T13:25:39.251Z,65.78
2022-10-23T13:28:31.561Z,66.10
2022-10-23T13:31:03.006Z,65.20
2022-10-23T13:33:34.617Z,64.72
2022-10-23T13:36:04.984Z,64.72
2022-10-23T13:38:37.267Z,65.24
2022-10-23T13:41:11.258Z,66.41
2022-10-23T13:43:38.181Z,66.57
2022-10-23T13:46:04.784Z,66.44
2022-10-23T13:48:31.928Z,66.54
2022-10-23T13:51:10.598Z,66.53
2022-10-23T13:53:37.166Z,66.81
2022-10-23T13:56:03.772Z,66.05
2022-10-23T13:58:30.734Z,67.13
2022-10-23T14:00:58.498Z,66.40
2022-10-23T14:03:25.156Z,66.74
2022-10-23T14:05:51.860Z,67.46
2022-10-23T14:08:18.970Z,67.42
2022-10-23T14:10:45.795Z,67.36
2022-10-23T14:13:12.328Z,67.75
2022-10-23T14:15:39.033Z,67.62
2022-10-23T14:18:08.240Z,67.63
2022-10-23T14:20:37.795Z,67.64
2022-10-23T14:23:04.317Z,67.64
2022-10-23T14:25:30.910Z,67.18
2022-10-23T14:27:57.440Z,67.46
2022-10-23T14:30:24.142Z,67.11
2022-10-23T14:32:52.248Z,67.58
2022-10-23T14:35:18.940Z,67.53
2022-10-23T14:37:45.847Z,67.07
2022-10-23T14:40:12.726Z,67.69
2022-10-23T14:42:39.305Z,67.77
2022-10-23T14:45:06.520Z,67.16
2022-10-23T14:47:33.130Z,67.50
2022-10-23T14:49:59.791Z,68.41
2022-10-23T14:52:26.397Z,67.89
2022-10-23T14:54:53.703Z,68.01
2022-10-23T14:57:22.016Z,68.42
2022-10-23T14:59:49.911Z,68.45
2022-10-23T15:02:17.330Z,69.05
2022-10-23T15:04:43.896Z,68.93
2022-10-23T15:07:10.473Z,69.67
2022-10-23T15:09:37.429Z,69.93
2022-10-23T15:12:04.346Z,69.49
2022-10-23T15:14:31.062Z,70.06
2022-10-23T15:16:57.823Z,70.01
2022-10-23T15:19:24.762Z,70.31
2022-10-23T15:21:52.402Z,70.79
2022-10-23T15:24:20.637Z,71.44
2022-10-23T15:26:48.384Z,71.17
2022-10-23T15:29:15.211Z,71.44
2022-10-23T15:31:42.979Z,71.11
2022-10-23T15:34:12.008Z,71.32
2022-10-23T15:36:38.911Z,71.54
2022-10-23T15:39:08.897Z,71.81
2022-10-23T15:41:38.775Z,71.86
2022-10-23T15:44:06.828Z,72.82
2022-10-23T15:46:34.083Z,72.33
2022-10-23T15:49:00.754Z,72.99
2022-10-23T15:51:28.206Z,72.59
2022-10-23T15:53:56.858Z,73.35
2022-10-23T15:56:24.344Z,73.42
2022-10-23T15:58:50.960Z,72.52
2022-10-23T16:01:18.214Z,73.56
2022-10-23T16:03:45.006Z,73.85
2022-10-23T16:06:13.739Z,74.45
2022-10-23T16:08:40.373Z,74.27
2022-10-23T16:11:15.199Z,75.51
2022-10-23T16:13:42.847Z,74.71
2022-10-23T16:16:09.752Z,74.84
2022-10-23T16:18:36.555Z,75.16
2022-10-23T16:21:03.168Z,75.48
2022-10-23T16:23:29.740Z,76.76
2022-10-23T16:25:56.313Z,76.36
2022-10-23T16:28:22.854Z,76.67
2022-10-23T16:30:49.402Z,76.88
2022-10-23T16:33:15.922Z,76.96
2022-10-23T16:35:42.506Z,76.57
2022-10-23T16:38:15.962Z,77.25
2022-10-23T16:40:42.514Z,77.31
2022-10-23T16:43:28.609Z,77.23
2022-10-23T16:46:15.818Z,77.88
2022-10-23T16:48:42.878Z,77.73
2022-10-23T16:51:12.000Z,77.75
2022-10-23T16:53:38.935Z,78.14
2022-10-23T16:56:07.386Z,78.58
2022-10-23T16:58:34.708Z,78.60
2022-10-23T17:01:06.830Z,78.24
2022-10-23T17:03:38.372Z,79.02
2022-10-23T17:06:08.832Z,78.64
2022-10-23T17:08:37.766Z,78.60
2022-10-23T17:11:36.711Z,79.30
2022-10-23T17:14:03.357Z,79.20
2022-10-23T17:16:40.452Z,80.87
2022-10-23T17:19:20.829Z,79.39
2022-10-23T17:21:56.066Z,79.30
2022-10-23T17:24:23.074Z,78.99
2022-10-23T17:26:49.894Z,80.17
2022-10-23T17:29:16.849Z,79.73
2022-10-23T17:31:46.334Z,79.98
2022-10-23T17:34:15.395Z,79.94
2022-10-23T17:36:44.717Z,80.86
2022-10-23T17:39:13.984Z,79.92
2022-10-23T17:41:41.358Z,79.97
2022-10-23T17:44:08.142Z,80.29
2022-10-23T17:46:34.734Z,80.54
2022-10-23T17:49:03.332Z,81.06
2022-10-23T17:51:32.384Z,80.29
2022-10-23T17:54:05.228Z,81.54
2022-10-23T17:56:33.834Z,80.00
2022-10-23T17:59:03.853Z,80.42
2022-10-23T18:01:31.615Z,80.43
2022-10-23T18:04:04.042Z,80.99
2022-10-23T18:06:35.313Z,80.67
2022-10-23T18:09:03.438Z,80.58
2022-10-23T18:11:33.097Z,81.12
2022-10-23T18:16:33.546Z,81.21
2022-10-23T18:19:01.522Z,81.79
2022-10-23T18:21:28.427Z,81.22
2022-10-23T18:23:54.953Z,81.21
2022-10-23T18:26:27.955Z,82.34
2022-10-23T18:28:57.683Z,82.22
2022-10-23T18:31:27.073Z,82.04
2022-10-23T18:34:15.564Z,84.19
2022-10-23T18:36:42.188Z,83.02
2022-10-23T18:39:13.199Z,82.71
2022-10-23T18:41:43.354Z,82.66
2022-10-23T18:44:11.208Z,82.35
2022-10-23T18:46:37.937Z,82.51
2022-10-23T18:49:04.999Z,82.16
2022-10-23T18:51:34.730Z,82.58
2022-10-23T18:54:03.664Z,81.85
2022-10-23T18:56:30.280Z,82.66
2022-10-23T18:58:59.416Z,82.81
2022-10-23T19:01:28.265Z,83.11
2022-10-23T19:06:29.858Z,83.81
2022-10-23T19:08:57.064Z,83.08
2022-10-23T19:11:25.559Z,82.77
2022-10-23T19:13:52.373Z,82.94
2022-10-23T19:16:30.491Z,83.26
2022-10-23T19:19:00.334Z,82.29
2022-10-23T19:21:31.666Z,82.49
2022-10-23T19:24:02.625Z,82.73
2022-10-23T19:26:30.719Z,82.27
2022-10-23T19:28:57.983Z,81.93
2022-10-23T19:31:26.752Z,82.64
2022-10-23T19:33:53.804Z,82.73
2022-10-23T19:36:23.444Z,82.72
2022-10-23T19:38:51.170Z,82.24
2022-10-23T19:41:18.783Z,82.48
2022-10-23T19:43:45.591Z,83.96
2022-10-23T19:46:12.366Z,82.76
2022-10-23T19:48:44.201Z,82.71
2022-10-23T19:51:12.760Z,82.13
2022-10-23T19:53:40.785Z,82.48
2022-10-23T19:56:09.544Z,81.90
2022-10-23T19:58:36.257Z,82.45
2022-10-23T20:01:15.276Z,82.84
2022-10-23T20:03:45.499Z,82.02
2022-10-23T20:06:14.851Z,82.30
2022-10-23T20:08:41.880Z,82.10
2022-10-23T20:11:10.164Z,81.46
2022-10-23T20:13:36.821Z,82.41
2022-10-23T20:16:03.414Z,82.22
2022-10-23T20:18:30.867Z,82.48
2022-10-23T20:21:00.381Z,82.28
2022-10-23T20:23:27.121Z,82.58
2022-10-23T20:25:53.649Z,82.44
2022-10-23T20:28:21.637Z,82.32
2022-10-23T20:30:48.253Z,82.11
2022-10-23T20:33:14.834Z,82.09
2022-10-23T20:35:42.509Z,81.78
2022-10-23T20:38:09.929Z,81.82
2022-10-23T20:40:36.595Z,82.24
2022-10-23T20:43:03.444Z,82.19
2022-10-23T20:45:33.663Z,82.23
2022-10-23T20:48:00.197Z,81.66
2022-10-23T20:50:27.945Z,81.50
2022-10-23T20:52:54.498Z,81.83
2022-10-23T20:55:21.034Z,81.41
2022-10-23T20:57:48.077Z,81.47
2022-10-23T21:00:15.597Z,80.61
2022-10-23T21:02:43.986Z,80.54
2022-10-23T21:05:12.592Z,81.36
2022-10-23T21:07:39.287Z,81.64
2022-10-23T21:10:06.376Z,81.08
2022-10-23T21:12:32.919Z,80.94
2022-10-23T21:14:59.499Z,80.59
2022-10-23T21:17:26.328Z,81.03
2022-10-23T21:19:52.860Z,80.48
2022-10-23T21:22:19.559Z,80.24
2022-10-23T21:24:46.668Z,80.40
2022-10-23T21:27:15.044Z,80.42
2022-10-23T21:29:41.665Z,80.85
2022-10-23T21:32:08.231Z,80.85
2022-10-23T21:34:34.814Z,80.45
2022-10-23T21:37:17.892Z,80.64
2022-10-23T21:39:44.696Z,80.95
2022-10-23T21:42:13.193Z,80.79
2022-10-23T21:44:40.095Z,81.05
2022-10-23T21:47:06.828Z,80.82
2022-10-23T21:49:33.448Z,81.39
2022-10-23T21:52:00.082Z,80.75
2022-10-23T21:54:27.377Z,81.21
2022-10-23T21:56:54.229Z,80.87
2022-10-23T21:59:24.802Z,81.29
2022-10-23T22:01:52.827Z,80.82
2022-10-23T22:04:20.121Z,81.21
2022-10-23T22:06:48.617Z,81.14
2022-10-23T22:09:19.117Z,80.51
2022-10-23T22:11:46.052Z,80.92
2022-10-23T22:14:12.646Z,80.92
2022-10-23T22:16:39.250Z,80.56
2022-10-23T22:19:05.850Z,80.91
2022-10-23T22:21:32.438Z,80.30
2022-10-23T22:24:01.132Z,81.14
2022-10-23T22:26:36.789Z,80.78
2022-10-23T22:29:09.680Z,80.84
2022-10-23T22:31:37.480Z,81.21
2022-10-23T22:34:18.509Z,82.26
2022-10-23T22:36:52.929Z,81.40
2022-10-23T22:39:19.572Z,81.96
2022-10-23T22:41:47.480Z,82.01
2022-10-23T22:44:14.773Z,82.51
2022-10-23T22:46:42.305Z,82.52
2022-10-23T22:49:08.878Z,82.08
2022-10-23T22:51:36.735Z,81.91
2022-10-23T22:54:03.300Z,82.15
2022-10-23T22:56:30.719Z,81.90
2022-10-23T22:58:58.066Z,82.18
2022-10-23T23:01:36.219Z,82.63
2022-10-23T23:04:13.870Z,82.31
2022-10-23T23:06:49.558Z,82.21
2022-10-23T23:09:18.073Z,82.53
2022-10-23T23:11:51.770Z,82.70
2022-10-23T23:14:23.119Z,82.34
2022-10-23T23:16:52.001Z,83.17
2022-10-23T23:19:18.755Z,82.50
2022-10-23T23:21:45.310Z,82.55
2022-10-23T23:24:12.171Z,82.89
2022-10-23T23:26:38.850Z,82.92
2022-10-23T23:29:05.634Z,82.96
2022-10-23T23:31:32.242Z,83.39
2022-10-23T23:33:58.805Z,83.27
2022-10-23T23:36:27.075Z,84.18
2022-10-23T23:38:55.089Z,83.88
2022-10-23T23:41:22.257Z,83.84
2022-10-23T23:43:49.330Z,83.94
2022-10-23T23:46:16.507Z,84.83
2022-10-23T23:48:47.421Z,84.42
2022-10-23T23:51:19.935Z,84.90
2022-10-23T23:53:47.290Z,84.89
2022-10-23T23:56:13.907Z,85.05
2022-10-23T23:58:40.592Z,85.44
